Northumberland Strait: Past 24 Hour Conditions

 

Twillingate

12:30 AM NDT 21 September 2014
This table is a summary of hourly weather conditions for the past 24 hours.
Date / Time
(NDT)
Wind(knots) Conditions Visibility(km) Pressure(kPa) Air tempC) Relative humidity(%) Dew pointC)
21 September 2014
0:30 SW 21 gust 30 N/A N/A 101.3 12 67 6
20 September 2014
23:30 SW 20 gust 30 N/A N/A 101.3 12 62 4
22:30 SW 21 gust 29 N/A N/A 101.4 11 60 4
21:30 SW 24 gust 31 N/A N/A 101.4 11 55 3
20:30 SW 25 gust 33 N/A N/A 101.4 12 54 3
19:30 SW 17 gust 25 N/A N/A 101.4 12 59 4
18:30 WSW 24 gust 30 N/A N/A 101.4 12 60 4
17:30 SW 20 gust 29 N/A N/A 101.4 12 57 4
16:30 WSW 20 gust 33 N/A N/A 101.4 12 61 5
15:30 SW 16 gust 22 N/A N/A 101.4 13 56 4
14:30 SW 19 gust 28 N/A N/A 101.4 13 55 4
13:30 SW 16 gust 22 N/A N/A 101.5 13 56 4
12:30 SW 21 gust 26 N/A N/A 101.6 11 59 3
11:30 WSW 19 gust 25 N/A N/A 101.7 11 60 4
10:30 WSW 21 gust 28 N/A N/A 101.8 10 63 3
9:30 WSW 21 gust 27 N/A N/A 101.9 8 70 3
8:30 W 16 gust 24 N/A N/A 101.9 8 68 2
7:30 W 17 gust 24 N/A N/A 101.9 7 69 2
6:30 W 19 gust 26 N/A N/A 101.8 8 70 2
5:30 WNW 23 gust 29 N/A N/A 101.7 8 70 2
4:30 W 20 gust 30 N/A N/A 101.7 8 72 3
3:30 WNW 22 gust 31 N/A N/A 101.6 8 71 3
2:30 WNW 27 N/A N/A 101.5 8 71 3
1:30 WNW 22 gust 31 N/A N/A 101.5 8 69 3
0:30 W 17 gust 30 N/A N/A 101.4 7 70 2
 
Map of Atlantic - Newfoundland marine weather areas Southwestern Grand Banks - 44138 Banquereau - 44139 Tail of the Bank - 44140 Nickerson Bank - 44251 Northeast Burgeo Bank - 44255 Blanc-Sablon Airport Cap Whittle Chevery Natashquan Airport Heath Point Miscou Island Grand Étang Ingonish Beach North Mountain St.Paul Island J.A. Douglas McCurdy Sydney Airport Charlottetown Airport East Point North Cape Argentia Bonavista Burgeo Cape Race Corner Brook Daniel's Harbour Englee Ferolle Point La Scie Port aux Basques Rocky Harbour Sagona Island St. Anthony Airport St. John's Int'l Airport St. Lawrence Stephenville Airport Twillingate Winterland Wreckhouse Cartwright Airport Mary's Harbour Grates Cove Pool's Island Marticot Island Long Pond Îles de la Madeleine Airport
Legend: buoyBuoy land stationLand Station